createdAt,value
2019-05-13T00:00:09.139Z,51.04
2019-05-13T00:01:09.126Z,51.07
2019-05-13T00:02:09.100Z,50.45
2019-05-13T00:03:09.083Z,51.17
2019-05-13T00:04:09.074Z,50.76
2019-05-13T00:05:09.081Z,50.96
2019-05-13T00:06:09.082Z,51.28
2019-05-13T00:07:09.052Z,51.07
2019-05-13T00:08:09.039Z,51.07
2019-05-13T00:09:09.015Z,50.76
2019-05-13T00:10:09.003Z,51.28
2019-05-13T00:11:09.014Z,51.28
2019-05-13T00:12:09.006Z,50.86
2019-05-13T00:13:08.977Z,51.17
2019-05-13T00:14:08.962Z,50.99
2019-05-13T00:15:08.973Z,51.89
2019-05-13T00:16:08.960Z,51.37
2019-05-13T00:17:08.950Z,51.58
2019-05-13T00:18:08.935Z,52.33
2019-05-13T00:19:08.923Z,51.81
2019-05-13T00:20:08.905Z,52.01
2019-05-13T00:21:08.906Z,51.71
2019-05-13T00:22:08.886Z,52.01
2019-05-13T00:23:08.866Z,52.22
2019-05-13T00:24:08.849Z,52.43
2019-05-13T00:25:08.861Z,52.86
2019-05-13T00:26:08.856Z,52.45
2019-05-13T00:27:08.826Z,52.56
2019-05-13T00:28:08.812Z,53.17
2019-05-13T00:29:08.809Z,52.86
2019-05-13T00:30:08.798Z,53.17
2019-05-13T00:31:08.790Z,52.25
2019-05-13T00:32:08.772Z,52.76
2019-05-13T00:33:08.751Z,52.86
2019-05-13T00:34:08.738Z,52.86
2019-05-13T00:35:08.729Z,52.86
2019-05-13T00:36:08.728Z,52.66
2019-05-13T00:37:11.579Z,53.48
2019-05-13T00:38:08.712Z,53.69
2019-05-13T00:39:08.698Z,53.07
2019-05-13T00:40:08.688Z,53.92
2019-05-13T00:41:08.671Z,53.69
2019-05-13T00:42:08.654Z,53.69
2019-05-13T00:43:08.648Z,53.92
2019-05-13T00:44:08.643Z,54.41
2019-05-13T00:45:09.513Z,54.61
2019-05-13T00:46:08.619Z,54.74
2019-05-13T00:47:08.597Z,54.41
2019-05-13T00:48:08.595Z,54.53
2019-05-13T00:49:08.586Z,54.85
2019-05-13T00:50:08.589Z,54.92
2019-05-13T00:51:08.581Z,55.46
2019-05-13T00:52:08.569Z,55.23
2019-05-13T00:53:08.539Z,54.94
2019-05-13T00:54:08.554Z,55.36
2019-05-13T00:55:10.161Z,55.15
2019-05-13T00:56:08.515Z,54.94
2019-05-13T00:57:08.498Z,55.66
2019-05-13T00:58:08.484Z,55.66
2019-05-13T00:59:08.484Z,55.15
2019-05-13T01:00:08.460Z,55.66
2019-05-13T01:01:08.487Z,55.77
2019-05-13T01:02:08.452Z,56.08
2019-05-13T01:03:08.441Z,55.98
2019-05-13T01:04:08.428Z,55.57
2019-05-13T01:05:08.409Z,55.98
2019-05-13T01:06:08.417Z,56.62
2019-05-13T01:07:21.984Z,56.70
2019-05-13T01:08:09.382Z,56.59
2019-05-13T01:09:08.385Z,56.38
2019-05-13T01:10:08.365Z,57.14
2019-05-13T01:11:08.369Z,56.62
2019-05-13T01:12:08.352Z,57.65
2019-05-13T01:13:08.322Z,56.90
2019-05-13T01:14:08.308Z,57.54
2019-05-13T01:15:08.302Z,57.73
2019-05-13T01:16:08.291Z,57.86
2019-05-13T01:17:08.276Z,58.26
2019-05-13T01:18:08.263Z,58.37
2019-05-13T01:19:08.259Z,57.65
2019-05-13T01:20:08.245Z,58.16
2019-05-13T01:21:08.245Z,58.16
2019-05-13T01:22:08.239Z,57.75
2019-05-13T01:23:08.213Z,57.96
2019-05-13T01:24:08.202Z,58.29
2019-05-13T01:25:08.179Z,58.78
2019-05-13T01:26:08.180Z,58.60
2019-05-13T01:27:08.171Z,59.22
2019-05-13T01:28:08.152Z,59.33
2019-05-13T01:29:08.153Z,59.63
2019-05-13T01:30:08.141Z,58.91
2019-05-13T01:31:08.127Z,59.01
2019-05-13T01:32:08.121Z,58.81
2019-05-13T01:33:08.107Z,58.81
2019-05-13T01:34:08.105Z,59.53
2019-05-13T01:35:08.091Z,59.53
2019-05-13T01:36:08.077Z,59.53
2019-05-13T01:37:08.056Z,59.84
2019-05-13T01:38:08.040Z,59.74
2019-05-13T01:39:08.035Z,60.05
2019-05-13T01:40:08.014Z,60.17
2019-05-13T01:41:08.020Z,60.28
2019-05-13T01:42:08.013Z,60.69
2019-05-13T01:43:08.008Z,60.28
2019-05-13T01:44:07.990Z,60.28
2019-05-13T01:45:07.973Z,60.49
2019-05-13T01:46:07.976Z,61.65
2019-05-13T01:47:07.963Z,61.65
2019-05-13T01:48:08.207Z,60.89
2019-05-13T01:49:07.920Z,60.89
2019-05-13T01:50:07.914Z,60.82
2019-05-13T01:51:07.897Z,60.93
2019-05-13T01:52:07.903Z,60.89
2019-05-13T01:53:07.885Z,61.54
2019-05-13T01:54:07.876Z,61.41
2019-05-13T01:55:07.859Z,61.41
2019-05-13T01:56:07.849Z,61.61
2019-05-13T01:57:07.845Z,61.75
2019-05-13T01:58:07.814Z,62.13
2019-05-13T01:59:07.811Z,62.16
2019-05-13T02:00:07.810Z,62.03
2019-05-13T02:01:07.793Z,61.96
2019-05-13T02:02:07.807Z,61.65
2019-05-13T02:03:07.761Z,61.65
2019-05-13T02:04:07.753Z,62.47
2019-05-13T02:05:07.754Z,62.78
2019-05-13T02:06:07.757Z,62.57
2019-05-13T02:07:07.745Z,62.37
2019-05-13T02:08:07.715Z,62.47
2019-05-13T02:09:07.704Z,62.78
2019-05-13T02:10:07.702Z,62.81
2019-05-13T02:11:07.678Z,63.01
2019-05-13T02:12:07.681Z,62.92
2019-05-13T02:13:07.674Z,63.01
2019-05-13T02:14:07.649Z,63.22
2019-05-13T02:15:07.636Z,63.32
2019-05-13T02:16:07.625Z,63.43
2019-05-13T02:17:07.625Z,64.04
2019-05-13T02:18:07.599Z,63.01
2019-05-13T02:19:07.596Z,64.67
2019-05-13T02:20:07.603Z,63.74
2019-05-13T02:21:07.569Z,63.84
2019-05-13T02:22:07.568Z,64.15
2019-05-13T02:23:07.539Z,64.67
2019-05-13T02:24:07.528Z,64.67
2019-05-13T02:25:07.524Z,64.67
2019-05-13T02:26:07.516Z,64.56
2019-05-13T02:27:07.530Z,64.36
2019-05-13T02:28:10.163Z,64.36
2019-05-13T02:29:07.481Z,64.46
2019-05-13T02:30:07.471Z,64.46
2019-05-13T02:31:07.456Z,64.15
2019-05-13T02:32:07.448Z,64.25
2019-05-13T02:33:07.460Z,64.39
2019-05-13T02:34:07.436Z,64.46
2019-05-13T02:35:07.412Z,64.36
2019-05-13T02:36:07.409Z,64.28
2019-05-13T02:37:07.406Z,64.25
2019-05-13T02:38:19.616Z,65.42
2019-05-13T02:39:08.390Z,64.46
2019-05-13T02:40:07.379Z,65.42
2019-05-13T02:41:07.339Z,65.39
2019-05-13T02:42:07.334Z,65.49
2019-05-13T02:43:07.339Z,65.52
2019-05-13T02:44:07.329Z,64.90
2019-05-13T02:45:07.307Z,65.00
2019-05-13T02:46:07.301Z,65.83
2019-05-13T02:47:07.293Z,65.73
2019-05-13T02:48:07.295Z,65.11
2019-05-13T02:49:07.268Z,65.94
2019-05-13T02:50:07.247Z,65.73
2019-05-13T02:51:07.246Z,65.31
2019-05-13T02:52:07.245Z,65.55
2019-05-13T02:53:07.260Z,65.42
2019-05-13T02:54:07.212Z,65.76
2019-05-13T02:55:07.200Z,66.38
2019-05-13T02:56:07.181Z,66.55
2019-05-13T02:57:07.184Z,66.38
2019-05-13T02:58:07.183Z,66.58
2019-05-13T02:59:07.144Z,66.38
2019-05-13T03:00:07.133Z,66.45
2019-05-13T03:01:07.138Z,66.97
2019-05-13T03:02:07.128Z,66.76
2019-05-13T03:03:07.121Z,66.58
2019-05-13T03:04:07.103Z,66.48
2019-05-13T03:05:07.088Z,67.21
2019-05-13T03:06:07.092Z,66.89
2019-05-13T03:07:07.067Z,67.10
2019-05-13T03:08:07.071Z,67.00
2019-05-13T03:09:07.037Z,67.82
2019-05-13T03:10:07.035Z,67.82
2019-05-13T03:11:07.024Z,67.61
2019-05-13T03:12:07.020Z,67.51
2019-05-13T03:13:07.019Z,67.61
2019-05-13T03:14:06.999Z,67.93
2019-05-13T03:15:06.990Z,67.21
2019-05-13T03:16:06.971Z,67.61
2019-05-13T03:17:06.949Z,67.51
2019-05-13T03:18:06.960Z,67.41
2019-05-13T03:19:06.924Z,67.41
2019-05-13T03:20:06.931Z,67.82
2019-05-13T03:21:06.908Z,67.41
2019-05-13T03:22:06.898Z,68.03
2019-05-13T03:23:06.904Z,67.72
2019-05-13T03:24:06.897Z,67.51
2019-05-13T03:25:06.873Z,67.61
2019-05-13T03:26:06.867Z,67.82
2019-05-13T03:27:06.844Z,67.93
2019-05-13T03:28:06.877Z,67.82
2019-05-13T03:29:06.817Z,67.93
2019-05-13T03:30:06.804Z,67.82
2019-05-13T03:31:07.956Z,67.82
2019-05-13T03:32:07.639Z,67.93
2019-05-13T03:33:10.732Z,67.93
2019-05-13T03:34:08.036Z,67.61
2019-05-13T03:35:08.329Z,67.30
2019-05-13T03:36:08.358Z,67.61
2019-05-13T03:37:08.022Z,67.79
2019-05-13T03:38:06.734Z,67.30
2019-05-13T03:39:11.096Z,67.41
2019-05-13T03:40:07.706Z,67.27
2019-05-13T03:41:06.687Z,67.10
2019-05-13T03:42:06.674Z,66.86
2019-05-13T03:43:06.677Z,67.17
2019-05-13T03:44:06.653Z,66.69
2019-05-13T03:45:06.657Z,66.76
2019-05-13T03:46:06.650Z,66.66
2019-05-13T03:47:06.633Z,66.35
2019-05-13T03:48:06.632Z,66.66
2019-05-13T03:49:06.608Z,66.66
2019-05-13T03:50:06.601Z,66.76
2019-05-13T03:51:06.584Z,66.94
2019-05-13T03:52:06.563Z,66.73
2019-05-13T03:53:06.574Z,66.31
2019-05-13T03:54:06.572Z,66.73
2019-05-13T03:55:06.548Z,65.91
2019-05-13T03:56:06.524Z,65.49
2019-05-13T03:57:06.516Z,65.36
2019-05-13T03:58:06.507Z,65.67
2019-05-13T03:59:06.528Z,64.74
2019-05-13T04:00:06.488Z,65.43
2019-05-13T04:01:06.460Z,64.40
2019-05-13T04:02:06.464Z,64.37
2019-05-13T04:03:06.446Z,63.13
2019-05-13T04:04:06.453Z,63.24
2019-05-13T04:05:06.441Z,63.13
2019-05-13T04:06:06.425Z,64.27
2019-05-13T04:07:06.407Z,63.21
2019-05-13T04:08:06.392Z,63.10
2019-05-13T04:09:20.514Z,62.46
2019-05-13T04:10:07.375Z,62.02
2019-05-13T04:11:06.369Z,61.99
2019-05-13T04:12:06.366Z,61.14
2019-05-13T04:13:06.336Z,60.31
2019-05-13T04:14:06.338Z,60.63
2019-05-13T04:15:06.312Z,60.49
2019-05-13T04:16:06.324Z,59.88
2019-05-13T04:17:06.317Z,59.67
2019-05-13T04:18:06.283Z,59.36
2019-05-13T04:19:06.288Z,59.13
2019-05-13T04:20:06.260Z,58.92
2019-05-13T04:21:06.240Z,59.00
2019-05-13T04:22:06.231Z,58.80
2019-05-13T04:23:06.228Z,57.56
2019-05-13T04:24:06.241Z,57.33
2019-05-13T04:25:06.222Z,57.84
2019-05-13T04:26:06.201Z,57.03
2019-05-13T04:27:06.190Z,56.51
2019-05-13T04:28:06.172Z,57.00
2019-05-13T04:29:06.182Z,56.15
2019-05-13T04:30:06.158Z,56.49
2019-05-13T04:31:06.142Z,56.18
2019-05-13T04:32:06.136Z,56.35
2019-05-13T04:33:06.125Z,56.26
2019-05-13T04:34:06.110Z,56.46
2019-05-13T04:35:06.102Z,56.74
2019-05-13T04:36:06.089Z,56.02
2019-05-13T04:37:06.082Z,55.41
2019-05-13T04:38:09.191Z,55.82
2019-05-13T04:39:07.062Z,55.28
2019-05-13T04:40:06.042Z,55.41
2019-05-13T04:41:06.023Z,55.79
2019-05-13T04:42:06.024Z,54.97
2019-05-13T04:43:06.020Z,54.85
2019-05-13T04:44:06.044Z,53.90
2019-05-13T04:45:05.997Z,53.69
2019-05-13T04:46:05.976Z,52.87
2019-05-13T04:47:05.965Z,53.26
2019-05-13T04:48:05.966Z,52.01
2019-05-13T04:49:05.960Z,51.81
2019-05-13T04:50:05.932Z,51.65
2019-05-13T04:51:05.937Z,51.65
2019-05-13T04:52:05.915Z,50.92
2019-05-13T04:53:05.906Z,49.57
2019-05-13T04:54:05.908Z,50.26
2019-05-13T04:55:05.873Z,49.65
2019-05-13T04:56:05.869Z,50.13
2019-05-13T04:57:05.854Z,49.50
2019-05-13T04:58:05.862Z,48.18
2019-05-13T04:59:05.838Z,48.25
2019-05-13T05:00:05.816Z,48.03
2019-05-13T05:01:09.053Z,47.29
2019-05-13T05:02:05.807Z,46.45
2019-05-13T05:03:05.792Z,45.52
2019-05-13T05:04:13.872Z,45.42
2019-05-13T05:05:06.766Z,45.07
2019-05-13T05:06:05.745Z,43.96
2019-05-13T05:07:05.741Z,43.84
2019-05-13T05:08:05.725Z,43.81
2019-05-13T05:09:05.747Z,43.61
2019-05-13T05:10:30.414Z,43.79
2019-05-13T05:11:06.700Z,43.16
2019-05-13T05:12:05.689Z,42.03
2019-05-13T05:13:05.675Z,41.60
2019-05-13T05:14:05.674Z,40.86
2019-05-13T05:15:05.672Z,41.35
2019-05-13T05:16:05.656Z,40.23
2019-05-13T05:17:05.638Z,39.52
2019-05-13T05:18:05.618Z,40.23
2019-05-13T05:19:05.603Z,39.70
2019-05-13T05:20:05.624Z,39.30
2019-05-13T05:21:05.589Z,39.69
2019-05-13T05:22:05.593Z,38.46
2019-05-13T05:23:05.566Z,38.96
2019-05-13T05:24:05.564Z,38.86
2019-05-13T05:25:05.538Z,38.96
2019-05-13T05:26:05.543Z,38.54
2019-05-13T05:27:05.524Z,38.13
2019-05-13T05:28:05.502Z,37.63
2019-05-13T05:29:05.501Z,37.51
2019-05-13T05:30:05.497Z,37.40
2019-05-13T05:31:05.491Z,37.49
2019-05-13T05:32:05.458Z,37.48
2019-05-13T05:33:05.466Z,36.77
2019-05-13T05:34:06.752Z,37.48
2019-05-13T05:35:05.435Z,37.36
2019-05-13T05:36:05.419Z,36.46
2019-05-13T05:37:05.428Z,36.33
2019-05-13T05:38:05.398Z,36.04
2019-05-13T05:39:05.392Z,36.02
2019-05-13T05:40:05.375Z,35.70
2019-05-13T05:41:05.367Z,35.30
2019-05-13T05:42:05.352Z,35.50
2019-05-13T05:43:05.368Z,35.19
2019-05-13T05:44:05.332Z,35.50
2019-05-13T05:45:05.321Z,34.47
2019-05-13T05:46:05.307Z,34.78
2019-05-13T05:47:05.306Z,34.46
2019-05-13T05:48:05.316Z,34.46
2019-05-13T05:49:05.272Z,34.24
2019-05-13T05:50:05.262Z,34.01
2019-05-13T05:51:05.241Z,34.01
2019-05-13T05:52:05.246Z,32.81
2019-05-13T05:53:05.237Z,33.40
2019-05-13T05:54:05.264Z,33.51
2019-05-13T05:55:05.221Z,32.79
2019-05-13T05:56:05.204Z,32.77
2019-05-13T05:57:05.188Z,31.94
2019-05-13T05:58:05.179Z,32.03
2019-05-13T05:59:05.171Z,31.81
2019-05-13T06:00:05.159Z,31.91
2019-05-13T06:01:05.146Z,30.90
2019-05-13T06:02:05.147Z,30.68
2019-05-13T06:03:05.121Z,30.16
2019-05-13T06:04:05.122Z,29.35
2019-05-13T06:05:05.128Z,29.94
2019-05-13T06:06:05.104Z,28.92
2019-05-13T06:07:05.103Z,28.80
2019-05-13T06:08:05.077Z,28.90
2019-05-13T06:09:05.049Z,27.69
2019-05-13T06:10:05.067Z,28.19
2019-05-13T06:11:05.052Z,27.67
2019-05-13T06:12:05.022Z,27.25
2019-05-13T06:13:05.018Z,26.84
2019-05-13T06:14:05.013Z,27.52
2019-05-13T06:15:05.007Z,25.82
2019-05-13T06:16:04.995Z,25.40
2019-05-13T06:17:04.966Z,25.09
2019-05-13T06:18:04.959Z,25.49
2019-05-13T06:19:04.948Z,25.09
2019-05-13T06:20:04.972Z,25.29
2019-05-13T06:21:04.916Z,24.38
2019-05-13T06:22:04.907Z,24.37
2019-05-13T06:23:04.910Z,24.16
2019-05-13T06:24:04.911Z,24.46
2019-05-13T06:25:04.906Z,24.07
2019-05-13T06:26:04.897Z,23.75
2019-05-13T06:27:04.864Z,23.74
2019-05-13T06:28:04.851Z,23.94
2019-05-13T06:29:04.845Z,23.14
2019-05-13T06:30:04.837Z,22.14
2019-05-13T06:31:04.807Z,22.44
2019-05-13T06:32:17.562Z,23.22
2019-05-13T06:33:05.804Z,22.92
2019-05-13T06:34:04.930Z,22.13
2019-05-13T06:35:04.875Z,22.22
2019-05-13T06:36:04.799Z,22.41
2019-05-13T06:37:04.773Z,22.19
2019-05-13T06:38:04.748Z,22.09
2019-05-13T06:39:04.747Z,22.19
2019-05-13T06:40:04.732Z,21.60
2019-05-13T06:41:09.246Z,21.50
2019-05-13T06:42:05.725Z,21.39
2019-05-13T06:43:04.685Z,21.00
2019-05-13T06:44:04.680Z,21.50
2019-05-13T06:45:04.682Z,21.39
2019-05-13T06:46:04.658Z,21.50
2019-05-13T06:47:04.647Z,22.39
2019-05-13T06:48:04.640Z,22.20
2019-05-13T06:49:04.631Z,21.42
2019-05-13T06:50:04.615Z,22.30
2019-05-13T06:51:04.609Z,22.09
2019-05-13T06:52:04.592Z,22.09
2019-05-13T06:53:08.143Z,22.19
2019-05-13T06:54:04.557Z,21.48
2019-05-13T06:55:04.559Z,20.60
2019-05-13T06:56:04.552Z,21.78
2019-05-13T06:57:06.010Z,20.68
2019-05-13T06:58:04.541Z,21.08
2019-05-13T06:59:04.520Z,20.68
2019-05-13T07:00:04.524Z,21.19
2019-05-13T07:01:04.633Z,21.39
2019-05-13T07:02:04.488Z,21.19
2019-05-13T07:03:04.462Z,20.70
2019-05-13T07:04:04.452Z,21.29
2019-05-13T07:05:04.477Z,21.68
2019-05-13T07:06:04.456Z,21.09
2019-05-13T07:07:16.206Z,21.98
2019-05-13T07:08:05.419Z,21.47
2019-05-13T07:09:04.413Z,21.47
2019-05-13T07:10:04.402Z,20.98
2019-05-13T07:11:17.555Z,20.67
2019-05-13T07:12:05.388Z,20.88
2019-05-13T07:13:04.359Z,21.08
2019-05-13T07:14:04.352Z,20.68
2019-05-13T07:15:04.340Z,21.37
2019-05-13T07:16:04.355Z,20.57
2019-05-13T07:17:04.336Z,20.47
2019-05-13T07:18:04.319Z,20.57
2019-05-13T07:19:04.313Z,20.56
2019-05-13T07:20:04.300Z,20.86
2019-05-13T07:21:04.292Z,20.75
2019-05-13T07:22:04.284Z,20.45
2019-05-13T07:23:04.286Z,20.24
2019-05-13T07:24:04.268Z,20.04
2019-05-13T07:25:04.242Z,19.06
2019-05-13T07:26:04.277Z,20.25
2019-05-13T07:27:04.218Z,20.64
2019-05-13T07:28:04.217Z,20.35
2019-05-13T07:29:04.747Z,20.64
2019-05-13T07:30:04.209Z,20.23
2019-05-13T07:31:04.213Z,19.44
2019-05-13T07:32:04.177Z,19.34
2019-05-13T07:33:04.165Z,19.54
2019-05-13T07:34:04.154Z,19.43
2019-05-13T07:35:04.522Z,19.04
2019-05-13T07:36:04.148Z,19.32
2019-05-13T07:37:04.125Z,18.63
2019-05-13T07:38:04.117Z,19.21
2019-05-13T07:39:04.100Z,18.33
2019-05-13T07:40:04.087Z,18.13
2019-05-13T07:41:04.099Z,18.23
2019-05-13T07:42:05.824Z,18.91
2019-05-13T07:43:04.077Z,17.53
2019-05-13T07:44:04.057Z,18.21
2019-05-13T07:45:04.034Z,17.62
2019-05-13T07:46:04.038Z,17.82
2019-05-13T07:47:04.026Z,18.60
2019-05-13T07:48:18.362Z,17.92
2019-05-13T07:49:05.014Z,18.70
2019-05-13T07:50:03.985Z,18.12
2019-05-13T07:51:04.781Z,18.21
2019-05-13T07:52:03.989Z,18.03
2019-05-13T07:53:03.963Z,17.82
2019-05-13T07:54:03.951Z,17.82
2019-05-13T07:55:03.946Z,16.83
2019-05-13T07:56:03.935Z,17.99
2019-05-13T07:57:03.943Z,16.92
2019-05-13T07:58:03.904Z,17.22
2019-05-13T07:59:03.916Z,17.12
2019-05-13T08:00:03.883Z,17.41
2019-05-13T08:01:03.889Z,17.90
2019-05-13T08:02:03.972Z,18.29
2019-05-13T08:03:03.868Z,16.71
2019-05-13T08:04:03.855Z,17.30
2019-05-13T08:05:03.839Z,17.10
2019-05-13T08:06:03.822Z,16.92
2019-05-13T08:07:03.833Z,16.52
2019-05-13T08:08:03.805Z,16.90
2019-05-13T08:09:03.802Z,16.61
2019-05-13T08:10:03.842Z,15.43
2019-05-13T08:11:03.779Z,15.84
2019-05-13T08:12:10.254Z,18.06
2019-05-13T08:13:04.769Z,19.90
2019-05-13T08:14:03.798Z,19.23
2019-05-13T08:15:03.769Z,19.27
2019-05-13T08:16:03.929Z,17.69
2019-05-13T08:17:03.722Z,18.86
2019-05-13T08:18:03.705Z,18.39
2019-05-13T08:19:03.700Z,19.92
2019-05-13T08:20:03.684Z,19.31
2019-05-13T08:21:03.689Z,20.44
2019-05-13T08:22:03.684Z,21.88
2019-05-13T08:23:03.675Z,22.17
2019-05-13T08:24:03.663Z,22.30
2019-05-13T08:25:03.674Z,22.05
2019-05-13T08:26:03.632Z,23.37
2019-05-13T08:27:03.636Z,23.71
2019-05-13T08:28:03.627Z,23.25
2019-05-13T08:29:05.938Z,21.60
2019-05-13T08:30:03.585Z,20.46
2019-05-13T08:31:03.578Z,21.08
2019-05-13T08:32:03.578Z,20.89
2019-05-13T08:33:03.564Z,21.72
2019-05-13T08:34:03.569Z,21.04
2019-05-13T08:35:08.833Z,22.22
2019-05-13T08:36:04.532Z,20.68
2019-05-13T08:37:03.547Z,21.06
2019-05-13T08:38:03.496Z,20.72
2019-05-13T08:39:03.488Z,19.71
2019-05-13T08:40:03.489Z,18.29
2019-05-13T08:41:03.491Z,17.77
2019-05-13T08:42:15.651Z,16.28
2019-05-13T08:43:06.791Z,17.14
2019-05-13T08:44:03.447Z,17.46
2019-05-13T08:45:03.437Z,15.79
2019-05-13T08:46:03.443Z,17.81
2019-05-13T08:47:03.641Z,17.63
2019-05-13T08:48:03.403Z,17.79
2019-05-13T08:49:03.957Z,17.28
2019-05-13T08:50:04.470Z,16.36
2019-05-13T08:51:03.543Z,16.05
2019-05-13T08:52:03.385Z,15.64
2019-05-13T08:53:03.354Z,14.34
2019-05-13T08:54:03.355Z,14.44
2019-05-13T08:55:03.336Z,14.53
2019-05-13T08:56:03.325Z,14.87
2019-05-13T08:57:03.428Z,15.76
2019-05-13T08:58:03.320Z,15.30
2019-05-13T08:59:03.304Z,17.12
2019-05-13T09:00:05.469Z,18.52
2019-05-13T09:01:03.266Z,19.15
2019-05-13T09:02:03.598Z,19.07
2019-05-13T09:03:06.178Z,17.85
2019-05-13T09:04:03.255Z,16.64
2019-05-13T09:05:03.243Z,15.92
2019-05-13T09:06:03.261Z,15.41
2019-05-13T09:07:03.240Z,15.19
2019-05-13T09:08:03.216Z,13.60
2019-05-13T09:09:03.183Z,13.29
2019-05-13T09:10:03.177Z,14.56
2019-05-13T09:11:03.194Z,13.28
2019-05-13T09:12:03.176Z,14.78
2019-05-13T09:13:03.161Z,14.28
2019-05-13T09:14:03.148Z,14.18
2019-05-13T09:16:04.118Z,15.00
2019-05-13T09:17:03.139Z,16.11
2019-05-13T09:18:03.117Z,15.80
2019-05-13T09:19:03.980Z,15.38
2019-05-13T09:20:04.085Z,15.16
2019-05-13T09:21:03.079Z,14.72
2019-05-13T09:22:03.524Z,16.45
2019-05-13T09:23:03.059Z,16.99
2019-05-13T09:24:03.051Z,18.02
2019-05-13T09:25:03.045Z,18.82
2019-05-13T09:26:03.023Z,17.68
2019-05-13T09:27:03.043Z,16.87
2019-05-13T09:28:03.035Z,16.94
2019-05-13T09:29:03.000Z,15.63
2019-05-13T09:30:03.037Z,15.81
2019-05-13T09:31:02.985Z,15.97
2019-05-13T09:32:04.107Z,15.76
2019-05-13T09:33:02.971Z,15.83
2019-05-13T09:34:02.959Z,14.84
2019-05-13T09:35:03.253Z,14.54
2019-05-13T09:36:02.924Z,14.63
2019-05-13T09:37:03.242Z,14.32
2019-05-13T09:38:03.411Z,14.33
2019-05-13T09:39:02.904Z,13.14
2019-05-13T09:40:02.891Z,12.84
2019-05-13T09:41:02.876Z,12.83
2019-05-13T09:42:03.168Z,12.73
2019-05-13T09:43:02.885Z,11.74
2019-05-13T09:44:02.876Z,11.54
2019-05-13T09:45:02.840Z,11.33
2019-05-13T09:46:02.847Z,12.02
2019-05-13T09:47:03.039Z,11.74
2019-05-13T09:48:02.818Z,11.54
2019-05-13T09:49:15.054Z,12.71
2019-05-13T09:50:04.603Z,11.82
2019-05-13T09:51:02.816Z,12.93
2019-05-13T09:52:02.788Z,13.26
2019-05-13T09:53:03.269Z,14.37
2019-05-13T09:54:02.744Z,14.41
2019-05-13T09:55:03.235Z,14.62
2019-05-13T09:56:02.773Z,15.89
2019-05-13T09:57:02.729Z,14.62
2019-05-13T09:58:02.744Z,16.42
2019-05-13T09:59:02.701Z,17.54
2019-05-13T10:00:02.703Z,16.65
2019-05-13T10:01:02.720Z,16.33
2019-05-13T10:03:03.681Z,14.99
2019-05-13T10:04:03.250Z,16.49
2019-05-13T10:05:02.638Z,16.56
2019-05-13T10:06:02.838Z,15.69
2019-05-13T10:07:02.830Z,17.40
2019-05-13T10:08:02.682Z,17.43
2019-05-13T10:09:02.681Z,18.26
2019-05-13T10:10:02.598Z,18.48
2019-05-13T10:11:02.589Z,18.90
2019-05-13T10:12:03.492Z,20.24
2019-05-13T10:14:03.542Z,21.59
2019-05-13T10:15:02.616Z,22.02
2019-05-13T10:16:02.532Z,23.04
2019-05-13T10:17:05.971Z,23.25
2019-05-13T10:18:02.531Z,23.75
2019-05-13T10:19:02.857Z,23.95
2019-05-13T10:20:02.477Z,21.47
2019-05-13T10:21:02.481Z,21.74
2019-05-13T10:22:02.473Z,22.57
2019-05-13T10:23:02.473Z,22.58
2019-05-13T10:24:02.443Z,22.89
2019-05-13T10:25:02.815Z,22.20
2019-05-13T10:26:03.449Z,23.52
2019-05-13T10:27:02.745Z,23.23
2019-05-13T10:28:02.407Z,23.34
2019-05-13T10:29:02.398Z,24.05
2019-05-13T10:30:02.399Z,24.24
2019-05-13T10:31:02.646Z,24.04
2019-05-13T10:32:03.329Z,25.26
2019-05-13T10:33:02.919Z,25.15
2019-05-13T10:34:02.717Z,25.15
2019-05-13T10:35:03.205Z,24.73
2019-05-13T10:36:03.529Z,22.95
2019-05-13T10:37:02.732Z,21.78
2019-05-13T10:38:04.417Z,19.25
2019-05-13T10:39:02.279Z,19.32
2019-05-13T10:40:02.659Z,18.10
2019-05-13T10:41:03.240Z,16.79
2019-05-13T10:42:03.672Z,17.27
2019-05-13T10:43:02.283Z,15.28
2019-05-13T10:44:02.960Z,15.95
2019-05-13T10:45:02.670Z,16.63
2019-05-13T10:46:02.956Z,14.95
2019-05-13T10:47:02.638Z,15.34
2019-05-13T10:48:02.939Z,14.35
2019-05-13T10:49:02.183Z,14.05
2019-05-13T10:50:03.013Z,14.15
2019-05-13T10:51:02.496Z,14.76
2019-05-13T10:52:03.206Z,14.36
2019-05-13T10:53:02.689Z,16.17
2019-05-13T10:54:02.144Z,16.41
2019-05-13T10:55:02.201Z,18.52
2019-05-13T10:56:03.298Z,18.65
2019-05-13T10:57:03.897Z,18.03
2019-05-13T10:58:02.528Z,17.05
2019-05-13T10:59:03.005Z,18.45
2019-05-13T11:00:03.348Z,17.44
2019-05-13T11:01:02.832Z,17.50
2019-05-13T11:02:02.400Z,16.78
2019-05-13T11:03:02.040Z,15.38
2019-05-13T11:04:02.629Z,15.36
2019-05-13T11:05:03.165Z,14.18
2019-05-13T11:06:02.009Z,14.17
2019-05-13T11:07:03.067Z,14.06
2019-05-13T11:08:02.162Z,14.25
2019-05-13T11:09:02.206Z,14.15
2019-05-13T11:10:02.279Z,13.86
2019-05-13T11:11:02.169Z,13.06
2019-05-13T11:12:02.272Z,13.04
2019-05-13T11:13:01.939Z,13.72
2019-05-13T11:14:10.147Z,12.15
2019-05-13T11:15:02.932Z,12.98
2019-05-13T11:16:02.461Z,12.33
2019-05-13T11:17:01.901Z,14.82
2019-05-13T11:18:03.043Z,14.24
2019-05-13T11:19:02.811Z,15.56
2019-05-13T11:20:03.387Z,16.88
2019-05-13T11:21:02.223Z,17.38
2019-05-13T11:22:02.758Z,17.40
2019-05-13T11:23:02.459Z,17.32
2019-05-13T11:24:03.318Z,17.93
2019-05-13T11:25:02.677Z,18.24
2019-05-13T11:27:03.096Z,19.17
2019-05-13T11:28:01.841Z,19.57
2019-05-13T11:29:02.795Z,19.49
2019-05-13T11:30:05.491Z,20.09
2019-05-13T11:31:03.405Z,21.51
2019-05-13T11:32:02.733Z,22.74
2019-05-13T11:33:02.384Z,21.96
2019-05-13T11:34:02.185Z,22.47
2019-05-13T11:35:02.096Z,22.38
2019-05-13T11:36:03.231Z,22.49
2019-05-13T11:37:03.719Z,23.58
2019-05-13T11:38:01.774Z,23.30
2019-05-13T11:39:02.976Z,23.69
2019-05-13T11:40:02.758Z,23.79
2019-05-13T11:41:02.360Z,23.90
2019-05-13T11:42:02.285Z,24.20
2019-05-13T11:43:01.851Z,24.08
2019-05-13T11:44:12.904Z,23.55
2019-05-13T11:45:02.605Z,22.67
2019-05-13T11:46:02.420Z,20.45
2019-05-13T11:47:02.424Z,19.91
2019-05-13T11:48:02.342Z,18.48
2019-05-13T11:49:02.461Z,18.15
2019-05-13T11:50:02.494Z,16.93
2019-05-13T11:51:04.072Z,16.71
2019-05-13T11:52:02.666Z,15.20
2019-05-13T11:53:05.951Z,14.98
2019-05-13T11:54:02.750Z,14.38
2019-05-13T11:55:02.502Z,14.07
2019-05-13T11:56:03.557Z,13.87
2019-05-13T11:57:05.782Z,14.16
2019-05-13T11:58:02.907Z,13.17
2019-05-13T11:59:04.211Z,11.80
2019-05-13T12:00:02.615Z,13.17
2019-05-13T12:01:02.679Z,14.14
2019-05-13T12:02:04.486Z,13.06
2019-05-13T12:03:04.198Z,12.76
2019-05-13T12:04:02.736Z,12.57
2019-05-13T12:05:03.791Z,13.35
2019-05-13T12:06:02.218Z,12.56
2019-05-13T12:07:03.498Z,11.96
2019-05-13T12:08:01.383Z,12.77
2019-05-13T12:09:03.126Z,12.47
2019-05-13T12:10:02.691Z,13.01
2019-05-13T12:11:04.240Z,15.14
2019-05-13T12:12:03.256Z,16.18
2019-05-13T12:13:01.323Z,15.66
2019-05-13T12:14:01.317Z,15.03
2019-05-13T12:15:28.089Z,14.51
2019-05-13T12:16:03.804Z,14.09
2019-05-13T12:17:02.300Z,13.40
2019-05-13T12:18:02.898Z,12.81
2019-05-13T12:19:03.538Z,13.28
2019-05-13T12:20:03.104Z,12.20
2019-05-13T12:21:03.368Z,12.39
2019-05-13T12:22:02.638Z,11.04
2019-05-13T12:23:03.420Z,12.85
2019-05-13T12:24:09.474Z,14.17
2019-05-13T12:25:02.333Z,13.35
2019-05-13T12:26:04.130Z,13.33
2019-05-13T12:27:03.639Z,12.52
2019-05-13T12:28:03.387Z,11.63
2019-05-13T12:29:02.722Z,12.12
2019-05-13T12:30:03.072Z,12.81
2019-05-13T12:31:03.270Z,11.73
2019-05-13T12:32:03.371Z,13.23
2019-05-13T12:33:03.191Z,14.42
2019-05-13T12:34:03.619Z,15.55
2019-05-13T12:35:03.475Z,16.38
2019-05-13T12:36:01.999Z,16.60
2019-05-13T12:37:03.211Z,16.70
2019-05-13T12:38:01.064Z,16.52
2019-05-13T12:39:01.063Z,17.46
2019-05-13T12:40:03.210Z,18.48
2019-05-13T12:41:05.304Z,19.62
2019-05-13T12:42:03.338Z,19.25
2019-05-13T12:43:01.964Z,19.77
2019-05-13T12:44:01.811Z,20.58
2019-05-13T12:45:09.308Z,21.20
2019-05-13T12:46:02.465Z,21.82
2019-05-13T12:47:03.274Z,22.74
2019-05-13T12:48:03.310Z,22.52
2019-05-13T12:49:03.255Z,22.92
2019-05-13T12:50:03.172Z,22.41
2019-05-13T12:51:03.137Z,23.22
2019-05-13T12:52:04.372Z,22.91
2019-05-13T12:53:02.705Z,23.52
2019-05-13T12:54:03.726Z,22.31
2019-05-13T12:55:03.264Z,23.02
2019-05-13T12:56:03.294Z,23.30